sensor_id;sensor_type;location;lat;lon;timestamp;P1;durP1;ratioP1;P2;durP2;ratioP2
1471;SDS011;963;42.644;23.336;2024-01-15T00:00:42;23.80;;;15.00;;
1471;SDS011;963;42.644;23.336;2024-01-15T00:03:07;24.15;;;14.05;;
1471;SDS011;963;42.644;23.336;2024-01-15T00:05:33;22.70;;;13.40;;
1471;SDS011;963;42.644;23.336;2024-01-15T00:07:58;23.90;;;14.70;;
1471;SDS011;963;42.644;23.336;2024-01-15T00:10:23;22.30;;;14.10;;
1471;SDS011;963;42.644;23.336;2024-01-15T00:12:49;23.83;;;14.73;;
1471;SDS011;963;42.644;23.336;2024-01-15T00:15:14;23.70;;;14.43;;
1471;SDS011;963;42.644;23.336;2024-01-15T00:17:40;23.23;;;13.10;;
1471;SDS011;963;42.644;23.336;2024-01-15T00:20:06;25.00;;;14.37;;
1471;SDS011;963;42.644;23.336;2024-01-15T00:22:31;21.13;;;13.70;;
1471;SDS011;963;42.644;23.336;2024-01-15T00:24:57;25.90;;;14.27;;
1471;SDS011;963;42.644;23.336;2024-01-15T00:27:23;22.43;;;13.60;;
1471;SDS011;963;42.644;23.336;2024-01-15T00:29:48;24.80;;;14.33;;
1471;SDS011;963;42.644;23.336;2024-01-15T00:32:15;24.83;;;14.20;;
1471;SDS011;963;42.644;23.336;2024-01-15T00:34:41;23.70;;;14.57;;
1471;SDS011;963;42.644;23.336;2024-01-15T00:37:06;28.60;;;15.67;;
1471;SDS011;963;42.644;23.336;2024-01-15T00:39:32;27.27;;;15.70;;
1471;SDS011;963;42.644;23.336;2024-01-15T00:41:58;26.90;;;14.97;;
1471;SDS011;963;42.644;23.336;2024-01-15T00:44:23;21.60;;;13.63;;
1471;SDS011;963;42.644;23.336;2024-01-15T00:46:48;24.87;;;14.20;;
1471;SDS011;963;42.644;23.336;2024-01-15T00:49:14;30.27;;;15.97;;
1471;SDS011;963;42.644;23.336;2024-01-15T00:51:40;29.37;;;15.90;;
1471;SDS011;963;42.644;23.336;2024-01-15T00:54:05;26.17;;;14.63;;
1471;SDS011;963;42.644;23.336;2024-01-15T00:56:31;26.17;;;13.57;;
1471;SDS011;963;42.644;23.336;2024-01-15T00:58:56;24.43;;;14.30;;
1471;SDS011;963;42.644;23.336;2024-01-15T01:01:22;27.30;;;14.77;;
1471;SDS011;963;42.644;23.336;2024-01-15T01:03:47;20.83;;;12.07;;
1471;SDS011;963;42.644;23.336;2024-01-15T01:06:12;22.03;;;13.43;;
1471;SDS011;963;42.644;23.336;2024-01-15T01:08:38;22.67;;;15.17;;
1471;SDS011;963;42.644;23.336;2024-01-15T01:11:04;25.60;;;13.60;;
1471;SDS011;963;42.644;23.336;2024-01-15T01:13:31;27.35;;;13.05;;
1471;SDS011;963;42.644;23.336;2024-01-15T01:15:57;23.80;;;14.03;;
1471;SDS011;963;42.644;23.336;2024-01-15T01:18:23;23.07;;;13.20;;
1471;SDS011;963;42.644;23.336;2024-01-15T01:20:48;22.93;;;13.00;;
1471;SDS011;963;42.644;23.336;2024-01-15T01:23:13;29.20;;;14.37;;
1471;SDS011;963;42.644;23.336;2024-01-15T01:25:39;21.47;;;13.73;;
1471;SDS011;963;42.644;23.336;2024-01-15T01:28:04;24.50;;;13.20;;
1471;SDS011;963;42.644;23.336;2024-01-15T01:30:30;22.83;;;12.73;;
1471;SDS011;963;42.644;23.336;2024-01-15T01:32:55;19.77;;;12.03;;
1471;SDS011;963;42.644;23.336;2024-01-15T01:35:22;20.10;;;12.43;;
1471;SDS011;963;42.644;23.336;2024-01-15T01:37:47;21.27;;;12.35;;
1471;SDS011;963;42.644;23.336;2024-01-15T01:40:13;21.83;;;11.67;;
1471;SDS011;963;42.644;23.336;2024-01-15T01:42:38;22.80;;;12.23;;
1471;SDS011;963;42.644;23.336;2024-01-15T01:45:03;19.97;;;12.30;;
1471;SDS011;963;42.644;23.336;2024-01-15T01:47:29;21.13;;;12.25;;
1471;SDS011;963;42.644;23.336;2024-01-15T01:49:55;22.83;;;12.20;;
1471;SDS011;963;42.644;23.336;2024-01-15T01:52:21;22.40;;;12.00;;
1471;SDS011;963;42.644;23.336;2024-01-15T01:54:46;17.87;;;12.10;;
1471;SDS011;963;42.644;23.336;2024-01-15T01:57:12;19.30;;;11.57;;
1471;SDS011;963;42.644;23.336;2024-01-15T01:59:38;18.20;;;11.00;;
1471;SDS011;963;42.644;23.336;2024-01-15T02:02:04;20.50;;;12.50;;
1471;SDS011;963;42.644;23.336;2024-01-15T02:04:31;19.90;;;10.45;;
1471;SDS011;963;42.644;23.336;2024-01-15T02:06:56;18.45;;;10.38;;
1471;SDS011;963;42.644;23.336;2024-01-15T02:09:22;17.10;;;9.63;;
1471;SDS011;963;42.644;23.336;2024-01-15T02:11:47;14.13;;;10.20;;
1471;SDS011;963;42.644;23.336;2024-01-15T02:14:13;21.80;;;10.87;;
1471;SDS011;963;42.644;23.336;2024-01-15T02:16:38;22.73;;;11.93;;
1471;SDS011;963;42.644;23.336;2024-01-15T02:19:04;20.47;;;12.77;;
1471;SDS011;963;42.644;23.336;2024-01-15T02:21:30;20.97;;;11.23;;
1471;SDS011;963;42.644;23.336;2024-01-15T02:23:56;22.63;;;12.63;;
1471;SDS011;963;42.644;23.336;2024-01-15T02:26:22;20.50;;;11.60;;
1471;SDS011;963;42.644;23.336;2024-01-15T02:28:48;21.90;;;12.30;;
1471;SDS011;963;42.644;23.336;2024-01-15T02:31:15;23.15;;;12.32;;
1471;SDS011;963;42.644;23.336;2024-01-15T02:33:41;17.83;;;11.07;;
1471;SDS011;963;42.644;23.336;2024-01-15T02:36:07;25.23;;;11.52;;
1471;SDS011;963;42.644;23.336;2024-01-15T02:38:33;20.50;;;12.37;;
1471;SDS011;963;42.644;23.336;2024-01-15T02:40:58;17.70;;;12.40;;
1471;SDS011;963;42.644;23.336;2024-01-15T02:43:24;18.87;;;11.23;;
1471;SDS011;963;42.644;23.336;2024-01-15T02:45:49;21.40;;;13.60;;
1471;SDS011;963;42.644;23.336;2024-01-15T02:48:14;28.60;;;13.20;;
1471;SDS011;963;42.644;23.336;2024-01-15T02:50:40;36.33;;;12.37;;
1471;SDS011;963;42.644;23.336;2024-01-15T02:53:05;20.00;;;12.57;;
1471;SDS011;963;42.644;23.336;2024-01-15T02:55:31;20.70;;;11.97;;
1471;SDS011;963;42.644;23.336;2024-01-15T02:57:57;22.47;;;11.90;;
1471;SDS011;963;42.644;23.336;2024-01-15T03:00:22;22.57;;;14.20;;
1471;SDS011;963;42.644;23.336;2024-01-15T03:02:49;22.83;;;12.10;;
1471;SDS011;963;42.644;23.336;2024-01-15T03:05:15;21.27;;;12.38;;
1471;SDS011;963;42.644;23.336;2024-01-15T03:07:41;22.77;;;13.50;;
1471;SDS011;963;42.644;23.336;2024-01-15T03:10:07;21.27;;;12.57;;
1471;SDS011;963;42.644;23.336;2024-01-15T03:12:33;21.07;;;11.23;;
1471;SDS011;963;42.644;23.336;2024-01-15T03:14:58;20.50;;;13.70;;
1471;SDS011;963;42.644;23.336;2024-01-15T03:17:24;21.50;;;11.47;;
1471;SDS011;963;42.644;23.336;2024-01-15T03:19:49;16.33;;;10.30;;
1471;SDS011;963;42.644;23.336;2024-01-15T03:22:15;17.87;;;11.03;;
1471;SDS011;963;42.644;23.336;2024-01-15T03:24:41;13.65;;;10.07;;
1471;SDS011;963;42.644;23.336;2024-01-15T03:27:06;20.30;;;11.10;;
1471;SDS011;963;42.644;23.336;2024-01-15T03:29:32;17.03;;;10.90;;
1471;SDS011;963;42.644;23.336;2024-01-15T03:31:57;17.97;;;10.90;;
1471;SDS011;963;42.644;23.336;2024-01-15T03:34:23;21.87;;;10.87;;
1471;SDS011;963;42.644;23.336;2024-01-15T03:36:48;16.90;;;10.50;;
1471;SDS011;963;42.644;23.336;2024-01-15T03:39:14;19.73;;;12.40;;
1471;SDS011;963;42.644;23.336;2024-01-15T03:41:39;22.27;;;13.97;;
1471;SDS011;963;42.644;23.336;2024-01-15T03:44:04;22.27;;;13.10;;
1471;SDS011;963;42.644;23.336;2024-01-15T03:46:30;21.50;;;12.40;;
1471;SDS011;963;42.644;23.336;2024-01-15T03:48:55;21.40;;;13.27;;
1471;SDS011;963;42.644;23.336;2024-01-15T03:51:20;25.53;;;14.93;;
1471;SDS011;963;42.644;23.336;2024-01-15T03:53:46;26.67;;;15.53;;
1471;SDS011;963;42.644;23.336;2024-01-15T03:56:11;25.87;;;14.30;;
1471;SDS011;963;42.644;23.336;2024-01-15T03:58:37;26.50;;;14.63;;
1471;SDS011;963;42.644;23.336;2024-01-15T04:01:03;24.43;;;15.33;;
1471;SDS011;963;42.644;23.336;2024-01-15T04:03:28;24.30;;;15.07;;
1471;SDS011;963;42.644;23.336;2024-01-15T04:05:53;26.20;;;15.53;;
1471;SDS011;963;42.644;23.336;2024-01-15T04:08:19;26.70;;;14.67;;
1471;SDS011;963;42.644;23.336;2024-01-15T04:10:44;26.47;;;14.43;;
1471;SDS011;963;42.644;23.336;2024-01-15T04:13:10;25.47;;;14.33;;
1471;SDS011;963;42.644;23.336;2024-01-15T04:15:35;23.70;;;14.83;;
1471;SDS011;963;42.644;23.336;2024-01-15T04:18:02;20.17;;;12.40;;
1471;SDS011;963;42.644;23.336;2024-01-15T04:20:27;20.30;;;12.90;;
1471;SDS011;963;42.644;23.336;2024-01-15T04:22:53;23.93;;;13.33;;
1471;SDS011;963;42.644;23.336;2024-01-15T04:25:18;22.07;;;14.40;;
1471;SDS011;963;42.644;23.336;2024-01-15T04:27:44;23.83;;;13.50;;
1471;SDS011;963;42.644;23.336;2024-01-15T04:30:09;24.93;;;16.90;;
1471;SDS011;963;42.644;23.336;2024-01-15T04:32:35;26.70;;;17.70;;
1471;SDS011;963;42.644;23.336;2024-01-15T04:35:01;26.73;;;17.73;;
1471;SDS011;963;42.644;23.336;2024-01-15T04:37:26;42.50;;;20.80;;
1471;SDS011;963;42.644;23.336;2024-01-15T04:39:55;48.30;;;22.47;;
1471;SDS011;963;42.644;23.336;2024-01-15T04:42:20;38.25;;;21.80;;
1471;SDS011;963;42.644;23.336;2024-01-15T04:44:46;41.88;;;24.83;;
1471;SDS011;963;42.644;23.336;2024-01-15T04:47:12;39.07;;;24.10;;
1471;SDS011;963;42.644;23.336;2024-01-15T04:49:37;35.27;;;22.07;;
1471;SDS011;963;42.644;23.336;2024-01-15T04:52:03;31.70;;;17.80;;
1471;SDS011;963;42.644;23.336;2024-01-15T04:54:28;35.37;;;21.00;;
1471;SDS011;963;42.644;23.336;2024-01-15T04:56:54;38.33;;;22.53;;
1471;SDS011;963;42.644;23.336;2024-01-15T04:59:19;31.53;;;19.17;;
1471;SDS011;963;42.644;23.336;2024-01-15T05:01:44;32.57;;;17.67;;
1471;SDS011;963;42.644;23.336;2024-01-15T05:04:10;25.60;;;15.57;;
1471;SDS011;963;42.644;23.336;2024-01-15T05:06:35;27.73;;;15.73;;
1471;SDS011;963;42.644;23.336;2024-01-15T05:09:00;27.87;;;16.87;;
1471;SDS011;963;42.644;23.336;2024-01-15T05:11:26;26.13;;;15.83;;
1471;SDS011;963;42.644;23.336;2024-01-15T05:13:51;25.50;;;15.67;;
1471;SDS011;963;42.644;23.336;2024-01-15T05:16:17;34.67;;;18.37;;
1471;SDS011;963;42.644;23.336;2024-01-15T05:18:42;27.13;;;15.67;;
1471;SDS011;963;42.644;23.336;2024-01-15T05:21:08;25.58;;;14.88;;
1471;SDS011;963;42.644;23.336;2024-01-15T05:23:34;21.27;;;14.10;;
1471;SDS011;963;42.644;23.336;2024-01-15T05:25:59;26.80;;;17.00;;
1471;SDS011;963;42.644;23.336;2024-01-15T05:28:25;23.70;;;14.90;;
1471;SDS011;963;42.644;23.336;2024-01-15T05:30:50;27.70;;;15.93;;
1471;SDS011;963;42.644;23.336;2024-01-15T05:33:16;29.37;;;16.80;;
1471;SDS011;963;42.644;23.336;2024-01-15T05:35:42;31.67;;;17.60;;
1471;SDS011;963;42.644;23.336;2024-01-15T05:38:07;29.30;;;18.20;;
1471;SDS011;963;42.644;23.336;2024-01-15T05:40:33;35.73;;;19.90;;
1471;SDS011;963;42.644;23.336;2024-01-15T05:42:58;36.27;;;21.50;;
1471;SDS011;963;42.644;23.336;2024-01-15T05:45:25;35.57;;;21.37;;
1471;SDS011;963;42.644;23.336;2024-01-15T05:47:51;37.33;;;21.75;;
1471;SDS011;963;42.644;23.336;2024-01-15T05:50:17;34.50;;;21.63;;
1471;SDS011;963;42.644;23.336;2024-01-15T05:52:43;43.97;;;25.33;;
1471;SDS011;963;42.644;23.336;2024-01-15T05:55:08;46.10;;;26.30;;
1471;SDS011;963;42.644;23.336;2024-01-15T05:57:34;44.90;;;27.00;;
1471;SDS011;963;42.644;23.336;2024-01-15T06:00:00;44.40;;;26.87;;
1471;SDS011;963;42.644;23.336;2024-01-15T06:02:25;45.70;;;25.67;;
1471;SDS011;963;42.644;23.336;2024-01-15T06:04:51;42.10;;;26.57;;
1471;SDS011;963;42.644;23.336;2024-01-15T06:07:16;47.17;;;26.70;;
1471;SDS011;963;42.644;23.336;2024-01-15T06:09:41;47.00;;;29.30;;
1471;SDS011;963;42.644;23.336;2024-01-15T06:12:07;59.57;;;34.20;;
1471;SDS011;963;42.644;23.336;2024-01-15T06:14:33;73.03;;;36.33;;
1471;SDS011;963;42.644;23.336;2024-01-15T06:16:58;65.77;;;35.60;;
1471;SDS011;963;42.644;23.336;2024-01-15T06:19:24;59.57;;;38.23;;
1471;SDS011;963;42.644;23.336;2024-01-15T06:21:49;61.97;;;35.73;;
1471;SDS011;963;42.644;23.336;2024-01-15T06:24:14;51.40;;;29.37;;
1471;SDS011;963;42.644;23.336;2024-01-15T06:26:40;85.77;;;39.47;;
1471;SDS011;963;42.644;23.336;2024-01-15T06:29:06;60.87;;;31.27;;
1471;SDS011;963;42.644;23.336;2024-01-15T06:31:31;59.27;;;30.90;;
1471;SDS011;963;42.644;23.336;2024-01-15T06:33:56;42.90;;;27.37;;
1471;SDS011;963;42.644;23.336;2024-01-15T06:36:22;55.93;;;27.77;;
1471;SDS011;963;42.644;23.336;2024-01-15T06:38:47;60.80;;;33.30;;
1471;SDS011;963;42.644;23.336;2024-01-15T06:41:13;54.57;;;32.30;;
1471;SDS011;963;42.644;23.336;2024-01-15T06:43:38;53.67;;;29.70;;
1471;SDS011;963;42.644;23.336;2024-01-15T06:46:03;48.60;;;29.83;;
1471;SDS011;963;42.644;23.336;2024-01-15T06:48:29;49.40;;;29.73;;
1471;SDS011;963;42.644;23.336;2024-01-15T06:50:54;60.20;;;35.03;;
1471;SDS011;963;42.644;23.336;2024-01-15T06:53:19;52.57;;;32.67;;
1471;SDS011;963;42.644;23.336;2024-01-15T06:55:45;51.50;;;30.70;;
1471;SDS011;963;42.644;23.336;2024-01-15T06:58:11;61.13;;;34.77;;
1471;SDS011;963;42.644;23.336;2024-01-15T07:00:36;60.17;;;35.70;;
1471;SDS011;963;42.644;23.336;2024-01-15T07:03:02;61.70;;;35.90;;
1471;SDS011;963;42.644;23.336;2024-01-15T07:05:28;58.40;;;34.17;;
1471;SDS011;963;42.644;23.336;2024-01-15T07:07:55;54.85;;;33.53;;
1471;SDS011;963;42.644;23.336;2024-01-15T07:10:20;54.80;;;33.57;;
1471;SDS011;963;42.644;23.336;2024-01-15T07:12:46;52.40;;;32.80;;
1471;SDS011;963;42.644;23.336;2024-01-15T07:15:11;56.30;;;32.30;;
1471;SDS011;963;42.644;23.336;2024-01-15T07:17:36;63.47;;;35.27;;
1471;SDS011;963;42.644;23.336;2024-01-15T07:20:08;57.13;;;32.63;;
1471;SDS011;963;42.644;23.336;2024-01-15T07:22:37;57.25;;;32.13;;
1471;SDS011;963;42.644;23.336;2024-01-15T07:25:03;51.03;;;31.75;;
1471;SDS011;963;42.644;23.336;2024-01-15T07:27:30;55.90;;;34.00;;
1471;SDS011;963;42.644;23.336;2024-01-15T07:29:56;59.15;;;32.78;;
1471;SDS011;963;42.644;23.336;2024-01-15T07:32:21;47.90;;;30.63;;
1471;SDS011;963;42.644;23.336;2024-01-15T07:34:47;52.83;;;30.57;;
1471;SDS011;963;42.644;23.336;2024-01-15T07:37:12;51.87;;;30.30;;
1471;SDS011;963;42.644;23.336;2024-01-15T07:39:37;54.77;;;30.57;;
1471;SDS011;963;42.644;23.336;2024-01-15T07:42:03;47.57;;;28.97;;
1471;SDS011;963;42.644;23.336;2024-01-15T07:44:29;46.33;;;29.37;;
1471;SDS011;963;42.644;23.336;2024-01-15T07:46:54;45.90;;;27.03;;
1471;SDS011;963;42.644;23.336;2024-01-15T07:49:19;40.57;;;25.63;;
1471;SDS011;963;42.644;23.336;2024-01-15T07:51:45;47.80;;;24.97;;
1471;SDS011;963;42.644;23.336;2024-01-15T07:54:10;53.57;;;27.23;;
1471;SDS011;963;42.644;23.336;2024-01-15T07:59:23;42.88;;;26.48;;
1471;SDS011;963;42.644;23.336;2024-01-15T08:01:49;47.83;;;27.87;;
1471;SDS011;963;42.644;23.336;2024-01-15T08:04:15;66.75;;;28.83;;
1471;SDS011;963;42.644;23.336;2024-01-15T08:06:40;45.30;;;27.87;;
1471;SDS011;963;42.644;23.336;2024-01-15T08:09:06;53.57;;;29.70;;
1471;SDS011;963;42.644;23.336;2024-01-15T08:11:31;40.73;;;24.47;;
1471;SDS011;963;42.644;23.336;2024-01-15T08:13:57;35.30;;;21.30;;
1471;SDS011;963;42.644;23.336;2024-01-15T08:16:22;39.70;;;21.10;;
1471;SDS011;963;42.644;23.336;2024-01-15T08:18:50;36.83;;;22.17;;
1471;SDS011;963;42.644;23.336;2024-01-15T08:21:15;32.40;;;20.90;;
1471;SDS011;963;42.644;23.336;2024-01-15T08:23:41;35.10;;;20.43;;
1471;SDS011;963;42.644;23.336;2024-01-15T08:26:07;33.47;;;20.00;;
1471;SDS011;963;42.644;23.336;2024-01-15T08:28:33;30.13;;;18.83;;
1471;SDS011;963;42.644;23.336;2024-01-15T08:30:59;25.10;;;17.60;;
1471;SDS011;963;42.644;23.336;2024-01-15T08:33:24;28.97;;;16.20;;
1471;SDS011;963;42.644;23.336;2024-01-15T08:35:50;30.63;;;16.53;;
1471;SDS011;963;42.644;23.336;2024-01-15T08:38:15;32.83;;;21.50;;
1471;SDS011;963;42.644;23.336;2024-01-15T08:40:40;38.90;;;21.97;;
1471;SDS011;963;42.644;23.336;2024-01-15T08:43:06;34.07;;;18.57;;
1471;SDS011;963;42.644;23.336;2024-01-15T08:45:32;33.03;;;19.00;;
1471;SDS011;963;42.644;23.336;2024-01-15T08:47:58;47.05;;;21.40;;
1471;SDS011;963;42.644;23.336;2024-01-15T08:50:23;39.20;;;19.70;;
1471;SDS011;963;42.644;23.336;2024-01-15T08:52:49;32.83;;;21.40;;
1471;SDS011;963;42.644;23.336;2024-01-15T08:55:14;28.97;;;17.63;;
1471;SDS011;963;42.644;23.336;2024-01-15T08:57:40;29.07;;;17.40;;
1471;SDS011;963;42.644;23.336;2024-01-15T09:00:05;35.77;;;18.17;;
1471;SDS011;963;42.644;23.336;2024-01-15T09:02:33;29.07;;;16.20;;
1471;SDS011;963;42.644;23.336;2024-01-15T09:04:59;34.77;;;17.80;;
1471;SDS011;963;42.644;23.336;2024-01-15T09:07:25;27.90;;;16.60;;
1471;SDS011;963;42.644;23.336;2024-01-15T09:09:51;28.47;;;16.37;;
1471;SDS011;963;42.644;23.336;2024-01-15T09:12:17;30.07;;;16.13;;
1471;SDS011;963;42.644;23.336;2024-01-15T09:14:43;28.80;;;15.77;;
1471;SDS011;963;42.644;23.336;2024-01-15T09:17:09;27.17;;;15.73;;
1471;SDS011;963;42.644;23.336;2024-01-15T09:19:34;39.20;;;23.40;;
1471;SDS011;963;42.644;23.336;2024-01-15T09:22:00;41.70;;;20.37;;
1471;SDS011;963;42.644;23.336;2024-01-15T09:24:25;73.37;;;23.40;;
1471;SDS011;963;42.644;23.336;2024-01-15T09:26:51;72.87;;;23.03;;
1471;SDS011;963;42.644;23.336;2024-01-15T09:29:16;93.20;;;27.37;;
1471;SDS011;963;42.644;23.336;2024-01-15T09:31:43;38.80;;;24.20;;
1471;SDS011;963;42.644;23.336;2024-01-15T09:34:08;48.33;;;26.73;;
1471;SDS011;963;42.644;23.336;2024-01-15T09:36:43;46.07;;;29.43;;
1471;SDS011;963;42.644;23.336;2024-01-15T09:39:09;43.77;;;26.97;;
1471;SDS011;963;42.644;23.336;2024-01-15T09:41:36;47.43;;;24.93;;
1471;SDS011;963;42.644;23.336;2024-01-15T09:44:02;51.90;;;26.47;;
1471;SDS011;963;42.644;23.336;2024-01-15T09:46:33;36.60;;;22.50;;
1471;SDS011;963;42.644;23.336;2024-01-15T09:49:00;42.67;;;24.93;;
1471;SDS011;963;42.644;23.336;2024-01-15T09:51:27;49.30;;;28.27;;
1471;SDS011;963;42.644;23.336;2024-01-15T09:53:56;42.20;;;24.63;;
1471;SDS011;963;42.644;23.336;2024-01-15T09:56:22;46.83;;;27.70;;
1471;SDS011;963;42.644;23.336;2024-01-15T09:58:48;54.63;;;28.43;;
1471;SDS011;963;42.644;23.336;2024-01-15T10:01:14;53.13;;;30.27;;
1471;SDS011;963;42.644;23.336;2024-01-15T10:03:41;57.77;;;31.57;;
1471;SDS011;963;42.644;23.336;2024-01-15T10:06:07;58.00;;;30.50;;
1471;SDS011;963;42.644;23.336;2024-01-15T10:08:34;58.83;;;34.30;;
1471;SDS011;963;42.644;23.336;2024-01-15T10:11:04;64.63;;;39.90;;
1471;SDS011;963;42.644;23.336;2024-01-15T10:13:30;78.33;;;42.83;;
1471;SDS011;963;42.644;23.336;2024-01-15T10:15:56;69.32;;;40.35;;
1471;SDS011;963;42.644;23.336;2024-01-15T10:18:21;74.63;;;41.70;;
1471;SDS011;963;42.644;23.336;2024-01-15T10:20:47;68.80;;;43.20;;
1471;SDS011;963;42.644;23.336;2024-01-15T10:23:13;87.97;;;44.20;;
1471;SDS011;963;42.644;23.336;2024-01-15T10:25:41;72.50;;;44.37;;
1471;SDS011;963;42.644;23.336;2024-01-15T10:28:07;73.97;;;40.90;;
1471;SDS011;963;42.644;23.336;2024-01-15T10:30:33;72.43;;;43.07;;
1471;SDS011;963;42.644;23.336;2024-01-15T10:33:02;98.10;;;46.50;;
1471;SDS011;963;42.644;23.336;2024-01-15T10:38:01;104.87;;;54.67;;
1471;SDS011;963;42.644;23.336;2024-01-15T10:40:28;127.33;;;61.50;;
1471;SDS011;963;42.644;23.336;2024-01-15T10:42:53;79.40;;;42.70;;
1471;SDS011;963;42.644;23.336;2024-01-15T10:45:19;79.17;;;43.80;;
1471;SDS011;963;42.644;23.336;2024-01-15T10:47:45;66.40;;;46.50;;
1471;SDS011;963;42.644;23.336;2024-01-15T10:50:11;70.53;;;42.50;;
1471;SDS011;963;42.644;23.336;2024-01-15T10:52:37;60.03;;;39.90;;
1471;SDS011;963;42.644;23.336;2024-01-15T10:55:05;71.00;;;40.30;;
1471;SDS011;963;42.644;23.336;2024-01-15T10:57:33;63.37;;;38.53;;
1471;SDS011;963;42.644;23.336;2024-01-15T10:59:59;61.50;;;37.93;;
1471;SDS011;963;42.644;23.336;2024-01-15T11:02:27;58.97;;;33.90;;
1471;SDS011;963;42.644;23.336;2024-01-15T11:04:53;51.27;;;33.00;;
1471;SDS011;963;42.644;23.336;2024-01-15T11:07:20;49.03;;;32.53;;
1471;SDS011;963;42.644;23.336;2024-01-15T11:09:49;52.00;;;33.33;;
1471;SDS011;963;42.644;23.336;2024-01-15T11:12:15;48.00;;;32.30;;
1471;SDS011;963;42.644;23.336;2024-01-15T11:14:46;45.37;;;29.57;;
1471;SDS011;963;42.644;23.336;2024-01-15T11:17:13;43.40;;;28.50;;
1471;SDS011;963;42.644;23.336;2024-01-15T11:22:47;46.10;;;27.13;;
1471;SDS011;963;42.644;23.336;2024-01-15T11:30:08;44.40;;;26.40;;
1471;SDS011;963;42.644;23.336;2024-01-15T11:32:37;55.70;;;28.10;;
1471;SDS011;963;42.644;23.336;2024-01-15T11:35:06;35.27;;;24.07;;
1471;SDS011;963;42.644;23.336;2024-01-15T11:40:20;41.80;;;24.20;;
1471;SDS011;963;42.644;23.336;2024-01-15T11:42:47;35.33;;;24.60;;
1471;SDS011;963;42.644;23.336;2024-01-15T11:45:13;37.60;;;26.03;;
1471;SDS011;963;42.644;23.336;2024-01-15T11:50:21;39.57;;;28.00;;
1471;SDS011;963;42.644;23.336;2024-01-15T11:52:49;36.43;;;24.97;;
1471;SDS011;963;42.644;23.336;2024-01-15T11:57:58;41.17;;;27.47;;
1471;SDS011;963;42.644;23.336;2024-01-15T12:00:26;44.60;;;31.43;;
1471;SDS011;963;42.644;23.336;2024-01-15T12:02:52;47.13;;;29.80;;
1471;SDS011;963;42.644;23.336;2024-01-15T12:05:17;41.70;;;29.27;;
1471;SDS011;963;42.644;23.336;2024-01-15T12:07:45;47.50;;;27.00;;
1471;SDS011;963;42.644;23.336;2024-01-15T12:10:20;37.27;;;23.73;;
1471;SDS011;963;42.644;23.336;2024-01-15T12:12:59;32.03;;;21.17;;
1471;SDS011;963;42.644;23.336;2024-01-15T12:15:26;32.63;;;20.83;;
1471;SDS011;963;42.644;23.336;2024-01-15T12:17:54;30.63;;;20.27;;
1471;SDS011;963;42.644;23.336;2024-01-15T12:20:29;37.93;;;18.80;;
1471;SDS011;963;42.644;23.336;2024-01-15T12:22:56;35.13;;;20.40;;
1471;SDS011;963;42.644;23.336;2024-01-15T12:25:22;35.17;;;22.20;;
1471;SDS011;963;42.644;23.336;2024-01-15T12:27:49;35.17;;;23.07;;
1471;SDS011;963;42.644;23.336;2024-01-15T12:30:14;36.40;;;23.70;;
1471;SDS011;963;42.644;23.336;2024-01-15T12:32:43;36.23;;;24.43;;
1471;SDS011;963;42.644;23.336;2024-01-15T12:35:12;37.57;;;24.07;;
1471;SDS011;963;42.644;23.336;2024-01-15T12:37:39;40.23;;;24.43;;
1471;SDS011;963;42.644;23.336;2024-01-15T12:40:07;41.90;;;24.40;;
1471;SDS011;963;42.644;23.336;2024-01-15T12:42:35;34.13;;;23.97;;
1471;SDS011;963;42.644;23.336;2024-01-15T12:45:06;40.83;;;24.07;;
1471;SDS011;963;42.644;23.336;2024-01-15T12:47:33;34.30;;;24.40;;
1471;SDS011;963;42.644;23.336;2024-01-15T12:49:58;37.13;;;22.90;;
1471;SDS011;963;42.644;23.336;2024-01-15T12:52:26;31.40;;;22.97;;
1471;SDS011;963;42.644;23.336;2024-01-15T12:54:52;35.77;;;23.30;;
1471;SDS011;963;42.644;23.336;2024-01-15T12:57:18;31.93;;;21.00;;
1471;SDS011;963;42.644;23.336;2024-01-15T12:59:44;31.50;;;22.10;;
1471;SDS011;963;42.644;23.336;2024-01-15T13:02:13;36.53;;;21.37;;
1471;SDS011;963;42.644;23.336;2024-01-15T13:04:39;32.03;;;20.80;;
1471;SDS011;963;42.644;23.336;2024-01-15T13:07:05;32.20;;;21.20;;
1471;SDS011;963;42.644;23.336;2024-01-15T13:09:31;48.53;;;22.70;;
1471;SDS011;963;42.644;23.336;2024-01-15T13:11:56;36.80;;;23.83;;
1471;SDS011;963;42.644;23.336;2024-01-15T13:14:22;61.77;;;34.70;;
1471;SDS011;963;42.644;23.336;2024-01-15T13:16:47;54.40;;;29.40;;
1471;SDS011;963;42.644;23.336;2024-01-15T13:19:13;36.60;;;24.40;;
1471;SDS011;963;42.644;23.336;2024-01-15T13:21:39;43.87;;;23.97;;
1471;SDS011;963;42.644;23.336;2024-01-15T13:24:05;38.13;;;22.80;;
1471;SDS011;963;42.644;23.336;2024-01-15T13:26:33;37.40;;;22.17;;
1471;SDS011;963;42.644;23.336;2024-01-15T13:29:01;36.70;;;22.70;;
1471;SDS011;963;42.644;23.336;2024-01-15T13:31:31;36.93;;;24.20;;
1471;SDS011;963;42.644;23.336;2024-01-15T13:33:56;37.20;;;24.23;;
1471;SDS011;963;42.644;23.336;2024-01-15T13:36:23;38.10;;;24.20;;
1471;SDS011;963;42.644;23.336;2024-01-15T13:38:51;37.47;;;23.33;;
1471;SDS011;963;42.644;23.336;2024-01-15T13:41:18;41.40;;;22.77;;
1471;SDS011;963;42.644;23.336;2024-01-15T13:43:47;41.00;;;25.20;;
1471;SDS011;963;42.644;23.336;2024-01-15T13:46:14;38.50;;;22.00;;
1471;SDS011;963;42.644;23.336;2024-01-15T13:48:40;73.80;;;25.57;;
1471;SDS011;963;42.644;23.336;2024-01-15T13:51:05;75.77;;;23.70;;
1471;SDS011;963;42.644;23.336;2024-01-15T13:53:31;50.90;;;23.93;;
1471;SDS011;963;42.644;23.336;2024-01-15T13:55:56;66.13;;;24.43;;
1471;SDS011;963;42.644;23.336;2024-01-15T13:58:22;41.93;;;21.57;;
1471;SDS011;963;42.644;23.336;2024-01-15T14:00:47;37.20;;;20.50;;
1471;SDS011;963;42.644;23.336;2024-01-15T14:03:13;37.60;;;21.87;;
1471;SDS011;963;42.644;23.336;2024-01-15T14:05:39;36.80;;;20.80;;
1471;SDS011;963;42.644;23.336;2024-01-15T14:08:05;62.27;;;24.60;;
1471;SDS011;963;42.644;23.336;2024-01-15T14:10:31;33.80;;;20.23;;
1471;SDS011;963;42.644;23.336;2024-01-15T14:12:56;40.63;;;20.23;;
1471;SDS011;963;42.644;23.336;2024-01-15T14:15:21;55.00;;;24.53;;
1471;SDS011;963;42.644;23.336;2024-01-15T14:17:47;56.40;;;22.60;;
1471;SDS011;963;42.644;23.336;2024-01-15T14:20:12;60.13;;;23.83;;
1471;SDS011;963;42.644;23.336;2024-01-15T14:22:38;46.33;;;21.47;;
1471;SDS011;963;42.644;23.336;2024-01-15T14:25:04;79.47;;;26.07;;
1471;SDS011;963;42.644;23.336;2024-01-15T14:27:29;71.30;;;25.20;;
1471;SDS011;963;42.644;23.336;2024-01-15T14:29:55;52.13;;;24.63;;
1471;SDS011;963;42.644;23.336;2024-01-15T14:32:20;44.77;;;26.27;;
1471;SDS011;963;42.644;23.336;2024-01-15T14:34:46;34.73;;;22.97;;
1471;SDS011;963;42.644;23.336;2024-01-15T14:37:11;39.83;;;26.57;;
1471;SDS011;963;42.644;23.336;2024-01-15T14:39:37;40.37;;;25.63;;
1471;SDS011;963;42.644;23.336;2024-01-15T14:42:02;54.93;;;26.50;;
1471;SDS011;963;42.644;23.336;2024-01-15T14:44:28;49.37;;;27.63;;
1471;SDS011;963;42.644;23.336;2024-01-15T14:46:53;42.10;;;26.40;;
1471;SDS011;963;42.644;23.336;2024-01-15T14:49:19;53.50;;;25.77;;
1471;SDS011;963;42.644;23.336;2024-01-15T14:51:45;43.20;;;26.47;;
1471;SDS011;963;42.644;23.336;2024-01-15T14:54:10;43.10;;;25.83;;
1471;SDS011;963;42.644;23.336;2024-01-15T14:56:36;48.20;;;25.27;;
1471;SDS011;963;42.644;23.336;2024-01-15T14:59:01;59.87;;;27.37;;
1471;SDS011;963;42.644;23.336;2024-01-15T15:01:26;40.07;;;25.00;;